Hamada, Japan

4:01 PM JST on February 12, 2016 (GMT +0900)
Iwakuni Marine Corps Air Station | | Change Station
CLOSE
Current Station
Airport
Location: Iwakuni MCAS,
Elevation: 7 ft
Nearby Weather Stations

Elev 7 ft 34.14 °N, 132.24 °E | Updated 6 minutes ago

Overcast
Overcast
55 °F
Feels Like 55 °F
N
4
Wind Variable Wind from South

Today
High -- | Low -- °F
--% Chance of Precip.
Yesterday
High -- | Low -- °F
Precip. -- in
Pressure 30.23 in
Visibility 6.2 miles
Clouds Few 3000 ft
Mostly Cloudy 5000 ft
Overcast 10000 ft
Dew Point 39 °F
Humidity 55%
Rainfall 0.00 in
Snow Depth Not available.
7:01 AM 5:50 PM
Waxing Crescent, 18% visible
METAR RJOI 120655Z 19003KT 9999 FEW030 BKN050 OVC100 13/04 A3023 RMK SLP237 T01280039
Pressure 30.23 in
Visibility 6.2 miles
Clouds Few 3000 ft
Mostly Cloudy 5000 ft
Overcast 10000 ft
Dew Point 39 °F
Humidity 55%
Rainfall 0.00 in
Snow Depth Not available.
7:01 AM 5:50 PM
Waxing Crescent, 18% visible
METAR RJOI 120655Z 19003KT 9999 FEW030 BKN050 OVC100 13/04 A3023 RMK SLP237 T01280039

10-Day Weather Forecast

No radar image for this location.
×

Almanac

Astronomy

Feb. 12, 2016 Rise Set
Actual Time
Civil Twilight
Nautical Twilight
Astronomical Twilight
Moon
Length of Visible Light
Length of Day
Tomorrow will be .
, % of the Moon is Illuminated

Today's Extremes

Country Highs Country Lows

Community

WunderPhotos

Upload Photos

1,892,278 photos uploaded!

WunderBlog® & News

Nearby

Air Quality

  Air Quality AQ Index Pollutant
Not available.

Snow Depth

Station Depth Elevation

Earthquake Activity

City Distance Mag. Time & Date
Minimum magnitude displayed is 2.5.

Coastal Water Temperatures

Place Temperature

Stations

Nearby Weather Stations

Station Location Temp. Windchill Dew Point Humidity Wind Precip. Elev Updated Type